KPVW

Hale County Airport

Plainview, Texas, USA
METAR KPVW 182315Z AUTO 18010KT 10SM CLR 26/17 A2999 RMK AO2 T02620166
Observed Flight Rules
Aug-18 @ 23:15 UTC (31 minutes ago) Visual Flight Rules
Wind Visibility Clouds
180° at 10 knots 10 miles
  • Clear skies
Temperatures Readings
Current 26°C / 79°F
Dewpoint 17°C / 63°F
Humidity 58%
Altimeter 29.99" Hg
Pressure 1016 hPa
Elevation 1028
METAR KPVW 182315Z AUTO 18010KT 10SM CLR 26/17 A2999 RMK AO2 T02620166
Observed Flight Rules
Aug-18 @ 23:15 UTC
(31 minutes ago)
VFR
Wind Visibility
180° at 10 knots 10 miles
Clouds
  • Clear skies
Temperature Dewpoint
26°C / 79°F 17°C / 63°F
Humidity Altimeter Pressure
58% 29.99" Hg 1016 hPa